createdAt,value
2018-11-28T00:01:48.736Z,99.90
2018-11-28T00:04:16.093Z,99.90
2018-11-28T00:06:43.482Z,99.90
2018-11-28T00:09:10.840Z,99.90
2018-11-28T00:11:38.215Z,99.90
2018-11-28T00:14:05.716Z,99.90
2018-11-28T00:16:33.213Z,99.90
2018-11-28T00:19:00.559Z,99.90
2018-11-28T00:21:27.922Z,99.90
2018-11-28T00:23:55.359Z,99.90
2018-11-28T00:26:22.765Z,99.90
2018-11-28T00:28:50.170Z,99.90
2018-11-28T00:31:17.527Z,99.90
2018-11-28T00:33:44.973Z,99.90
2018-11-28T00:36:12.371Z,99.90
2018-11-28T00:38:39.767Z,99.90
2018-11-28T00:41:07.208Z,99.90
2018-11-28T00:43:34.604Z,99.90
2018-11-28T00:46:02.047Z,99.90
2018-11-28T00:48:29.376Z,99.90
2018-11-28T00:50:56.726Z,99.90
2018-11-28T00:53:24.385Z,99.90
2018-11-28T00:55:51.808Z,99.90
2018-11-28T00:58:19.173Z,99.90
2018-11-28T01:00:46.674Z,99.90
2018-11-28T01:03:14.023Z,99.90
2018-11-28T01:05:41.364Z,99.90
2018-11-28T01:08:08.813Z,99.90
2018-11-28T01:10:36.298Z,99.90
2018-11-28T01:13:03.747Z,99.90
2018-11-28T01:15:31.161Z,99.90
2018-11-28T01:17:58.534Z,99.90
2018-11-28T01:20:25.993Z,99.90
2018-11-28T01:22:53.364Z,99.90
2018-11-28T01:25:21.385Z,99.90
2018-11-28T01:27:49.280Z,99.90
2018-11-28T01:30:18.764Z,99.90
2018-11-28T01:32:46.306Z,99.90
2018-11-28T01:35:14.659Z,99.90
2018-11-28T01:37:42.319Z,99.90
2018-11-28T01:40:16.407Z,99.90
2018-11-28T01:42:43.898Z,99.90
2018-11-28T01:45:13.415Z,99.90
2018-11-28T01:47:40.920Z,99.90
2018-11-28T01:50:09.721Z,99.90
2018-11-28T01:52:37.118Z,99.90
2018-11-28T01:55:05.981Z,99.90
2018-11-28T01:57:33.351Z,99.90
2018-11-28T02:00:00.765Z,99.90
2018-11-28T02:02:28.131Z,99.90
2018-11-28T02:04:55.554Z,99.90
2018-11-28T02:07:22.984Z,99.90
2018-11-28T02:09:50.480Z,99.90
2018-11-28T02:12:17.957Z,99.90
2018-11-28T02:14:45.384Z,99.90
2018-11-28T02:17:12.723Z,99.90
2018-11-28T02:19:40.131Z,99.90
2018-11-28T02:22:07.516Z,99.90
2018-11-28T02:24:34.932Z,99.90
2018-11-28T02:27:02.377Z,99.90
2018-11-28T02:29:29.784Z,99.90
2018-11-28T02:31:57.280Z,99.90
2018-11-28T02:34:24.686Z,99.90
2018-11-28T02:36:52.232Z,99.90
2018-11-28T02:39:19.629Z,99.90
2018-11-28T02:41:47.078Z,99.90
2018-11-28T02:44:14.520Z,99.90
2018-11-28T02:46:41.925Z,99.90
2018-11-28T02:49:09.343Z,99.90
2018-11-28T02:51:37.910Z,99.90
2018-11-28T02:54:04.703Z,99.90
2018-11-28T02:56:32.110Z,99.90
2018-11-28T02:58:59.486Z,99.90
2018-11-28T03:01:26.929Z,99.90
2018-11-28T03:03:54.399Z,99.90
2018-11-28T03:06:21.964Z,99.90
2018-11-28T03:08:49.306Z,99.90
2018-11-28T03:11:16.666Z,99.90
2018-11-28T03:13:44.158Z,99.90
2018-11-28T03:16:14.056Z,99.90
2018-11-28T03:18:41.483Z,99.90
2018-11-28T03:21:08.828Z,99.90
2018-11-28T03:23:36.201Z,99.90
2018-11-28T03:26:03.663Z,99.90
2018-11-28T03:28:31.050Z,99.90
2018-11-28T03:30:58.410Z,99.90
2018-11-28T03:33:25.842Z,99.90
2018-11-28T03:35:53.208Z,99.90
2018-11-28T03:38:20.698Z,99.90
2018-11-28T03:40:48.050Z,99.90
2018-11-28T03:43:15.472Z,99.90
2018-11-28T03:45:42.881Z,99.90
2018-11-28T03:48:10.334Z,99.90
2018-11-28T03:50:37.733Z,99.90
2018-11-28T03:53:05.441Z,99.90
2018-11-28T03:55:32.844Z,99.90
2018-11-28T03:58:00.260Z,99.90
2018-11-28T04:00:27.630Z,99.90
2018-11-28T04:02:55.052Z,99.90
2018-11-28T04:05:22.486Z,99.90
2018-11-28T04:07:49.858Z,99.90
2018-11-28T04:10:17.243Z,99.90
2018-11-28T04:12:44.913Z,99.90
2018-11-28T04:15:19.568Z,99.90
2018-11-28T04:17:47.110Z,99.90
2018-11-28T04:20:15.434Z,99.90
2018-11-28T04:22:42.935Z,99.90
2018-11-28T04:25:11.075Z,99.90
2018-11-28T04:27:38.461Z,99.90
2018-11-28T04:30:09.915Z,99.90
2018-11-28T04:32:37.371Z,99.90
2018-11-28T04:35:06.029Z,99.90
2018-11-28T04:37:33.488Z,99.90
2018-11-28T04:40:00.882Z,99.90
2018-11-28T04:42:28.294Z,99.90
2018-11-28T04:44:55.701Z,99.90
2018-11-28T04:47:23.137Z,99.90
2018-11-28T04:49:50.572Z,99.90
2018-11-28T04:52:17.926Z,99.90
2018-11-28T04:54:45.360Z,99.90
2018-11-28T04:57:12.777Z,99.90
2018-11-28T04:59:40.140Z,99.90
2018-11-28T05:02:09.644Z,99.90
2018-11-28T05:04:37.049Z,99.90
2018-11-28T05:07:35.321Z,99.90
2018-11-28T05:10:03.244Z,99.90
2018-11-28T05:12:30.675Z,99.90
2018-11-28T05:14:58.072Z,99.90
2018-11-28T05:17:25.475Z,99.90
2018-11-28T05:19:52.904Z,99.90
2018-11-28T05:22:20.290Z,99.90
2018-11-28T05:24:47.666Z,99.90
2018-11-28T05:27:15.049Z,99.90
2018-11-28T05:29:43.172Z,99.90
2018-11-28T05:32:10.642Z,99.90
2018-11-28T05:34:38.014Z,99.90
2018-11-28T05:37:05.784Z,99.90
2018-11-28T05:39:33.225Z,99.90
2018-11-28T05:42:00.735Z,99.90
2018-11-28T05:44:28.398Z,99.90
2018-11-28T05:46:55.846Z,99.90
2018-11-28T05:49:23.224Z,99.90
2018-11-28T05:51:50.762Z,99.90
2018-11-28T05:54:18.119Z,99.90
2018-11-28T05:56:45.538Z,99.90
2018-11-28T05:59:12.902Z,99.90
2018-11-28T06:01:40.290Z,99.90
2018-11-28T06:04:07.713Z,99.90
2018-11-28T06:06:35.156Z,99.90
2018-11-28T06:09:07.848Z,99.90
2018-11-28T06:11:35.714Z,99.90
2018-11-28T06:14:03.116Z,99.90
2018-11-28T06:16:30.572Z,99.90
2018-11-28T06:18:57.980Z,99.90
2018-11-28T06:21:25.393Z,99.90
2018-11-28T06:23:53.236Z,99.90
2018-11-28T06:26:20.604Z,99.90
2018-11-28T06:28:47.980Z,99.90
2018-11-28T06:31:15.371Z,99.90
2018-11-28T06:33:43.174Z,99.90
2018-11-28T06:36:10.579Z,99.90
2018-11-28T06:38:37.978Z,99.90
2018-11-28T06:41:05.724Z,99.90
2018-11-28T06:43:33.092Z,99.90
2018-11-28T06:46:00.544Z,99.90
2018-11-28T06:48:29.010Z,99.90
2018-11-28T06:50:56.408Z,99.90
2018-11-28T06:53:23.782Z,99.90
2018-11-28T06:55:51.163Z,99.90
2018-11-28T06:58:18.592Z,99.90
2018-11-28T07:00:46.024Z,99.90
2018-11-28T07:03:13.471Z,99.90
2018-11-28T07:05:40.820Z,99.90
2018-11-28T07:08:08.220Z,99.90
2018-11-28T07:10:35.597Z,99.90
2018-11-28T07:13:02.952Z,99.90
2018-11-28T07:15:30.320Z,99.90
2018-11-28T07:18:09.143Z,99.90
2018-11-28T07:20:36.546Z,99.90
2018-11-28T07:23:03.902Z,99.90
2018-11-28T07:25:31.279Z,99.90
2018-11-28T07:27:58.708Z,99.90
2018-11-28T07:30:26.172Z,99.90
2018-11-28T07:32:56.626Z,99.90
2018-11-28T07:35:24.944Z,99.90
2018-11-28T07:37:52.228Z,99.90
2018-11-28T07:40:23.724Z,99.90
2018-11-28T07:42:58.063Z,99.90
2018-11-28T07:45:25.450Z,99.90
2018-11-28T07:47:52.888Z,99.90
2018-11-28T07:50:20.320Z,99.90
2018-11-28T07:52:47.764Z,99.90
2018-11-28T07:55:15.171Z,99.90
2018-11-28T07:57:42.613Z,99.90
2018-11-28T08:00:14.085Z,99.90
2018-11-28T08:02:41.978Z,99.90
2018-11-28T08:05:10.381Z,99.90
2018-11-28T08:07:37.904Z,99.90
2018-11-28T08:10:07.485Z,99.90
2018-11-28T08:12:34.925Z,99.90
2018-11-28T08:15:02.339Z,99.90
2018-11-28T08:17:30.052Z,99.90
2018-11-28T08:19:57.048Z,99.90
2018-11-28T08:22:24.392Z,99.90
2018-11-28T08:24:51.847Z,99.90
2018-11-28T08:27:19.200Z,99.90
2018-11-28T08:29:46.649Z,99.90
2018-11-28T08:32:14.167Z,99.90
2018-11-28T08:34:41.557Z,99.90
2018-11-28T08:37:08.966Z,99.90
2018-11-28T08:39:36.392Z,99.90
2018-11-28T08:42:03.770Z,99.90
2018-11-28T08:44:31.220Z,99.90
2018-11-28T08:46:58.659Z,99.90
2018-11-28T08:49:26.054Z,99.90
2018-11-28T08:51:53.422Z,99.90
2018-11-28T08:54:20.824Z,99.90
2018-11-28T08:56:48.192Z,99.90
2018-11-28T08:59:15.637Z,99.90
2018-11-28T09:01:43.091Z,99.90
2018-11-28T09:04:10.478Z,99.90
2018-11-28T09:06:37.889Z,99.90
2018-11-28T09:09:07.387Z,99.90
2018-11-28T09:11:34.763Z,99.90
2018-11-28T09:14:04.635Z,99.90
2018-11-28T09:16:29.560Z,99.90
2018-11-28T09:18:56.956Z,99.90
2018-11-28T09:21:24.362Z,99.90
2018-11-28T09:23:51.844Z,99.90
2018-11-28T09:26:18.725Z,99.90
2018-11-28T09:28:50.130Z,99.90
2018-11-28T09:31:17.601Z,99.90
2018-11-28T09:33:45.026Z,99.90
2018-11-28T09:36:12.466Z,99.90
2018-11-28T09:38:39.831Z,99.90
2018-11-28T09:41:07.346Z,99.90
2018-11-28T09:43:34.768Z,99.90
2018-11-28T09:46:02.119Z,99.90
2018-11-28T09:48:33.211Z,99.90
2018-11-28T09:51:00.663Z,99.90
2018-11-28T09:53:28.082Z,99.90
2018-11-28T09:55:55.491Z,99.90
2018-11-28T09:58:22.956Z,99.90
2018-11-28T10:00:50.369Z,99.90
2018-11-28T10:03:17.759Z,99.90
2018-11-28T10:05:45.116Z,99.90
2018-11-28T10:08:12.516Z,99.60
2018-11-28T10:10:39.970Z,99.30
2018-11-28T10:13:07.373Z,98.90
2018-11-28T10:15:35.713Z,98.70
2018-11-28T10:18:02.214Z,99.00
2018-11-28T10:20:29.636Z,98.80
2018-11-28T10:22:57.062Z,98.80
2018-11-28T10:25:25.324Z,98.90
2018-11-28T10:28:03.790Z,98.40
2018-11-28T10:30:32.875Z,98.40
2018-11-28T10:33:00.276Z,98.10
2018-11-28T10:35:27.728Z,98.40
2018-11-28T10:37:55.097Z,98.40
2018-11-28T10:40:23.125Z,97.50
2018-11-28T10:42:54.524Z,97.20
2018-11-28T10:45:23.132Z,96.90
2018-11-28T10:47:50.597Z,97.10
2018-11-28T10:50:18.119Z,97.10
2018-11-28T10:52:45.555Z,96.90
2018-11-28T10:55:14.875Z,96.70
2018-11-28T10:57:42.360Z,96.60
2018-11-28T11:00:22.165Z,96.40
2018-11-28T11:02:55.407Z,96.50
2018-11-28T11:05:28.603Z,96.80
2018-11-28T11:08:01.680Z,96.70
2018-11-28T11:10:34.822Z,96.50
2018-11-28T11:13:07.975Z,96.50
2018-11-28T11:15:35.644Z,96.10
2018-11-28T11:18:03.151Z,96.10
2018-11-28T11:20:30.598Z,96.00
2018-11-28T11:22:57.972Z,95.40
2018-11-28T11:25:25.315Z,95.10
2018-11-28T11:27:52.750Z,95.10
2018-11-28T11:30:20.142Z,94.90
2018-11-28T11:32:47.652Z,94.50
2018-11-28T11:35:15.068Z,94.70
2018-11-28T11:37:42.528Z,94.70
2018-11-28T11:40:12.483Z,93.90
2018-11-28T11:42:39.937Z,94.20
2018-11-28T11:45:11.702Z,94.00
2018-11-28T11:47:39.138Z,94.40
2018-11-28T11:50:12.941Z,94.40
2018-11-28T11:52:40.764Z,94.00
2018-11-28T11:55:09.674Z,93.90
2018-11-28T11:57:37.080Z,94.00
2018-11-28T12:00:10.092Z,94.00
2018-11-28T12:02:37.536Z,93.90
2018-11-28T12:05:07.067Z,93.70
2018-11-28T12:07:34.650Z,92.90
2018-11-28T12:10:09.059Z,92.70
2018-11-28T12:12:36.156Z,92.00
2018-11-28T12:15:04.392Z,91.90
2018-11-28T12:17:31.683Z,92.10
2018-11-28T12:19:59.111Z,92.10
2018-11-28T12:22:26.560Z,92.00
2018-11-28T12:24:53.948Z,91.80
2018-11-28T12:27:21.397Z,90.90
2018-11-28T12:29:48.736Z,91.10
2018-11-28T12:32:16.164Z,91.10
2018-11-28T12:34:43.608Z,90.90
2018-11-28T12:37:10.964Z,90.60
2018-11-28T12:39:38.419Z,90.50
2018-11-28T12:42:05.854Z,90.80
2018-11-28T12:44:33.273Z,90.60
2018-11-28T12:47:00.709Z,91.10
2018-11-28T12:49:28.121Z,90.90
2018-11-28T12:51:57.681Z,90.80
2018-11-28T12:54:25.072Z,90.50
2018-11-28T12:56:52.492Z,90.20
2018-11-28T12:59:19.839Z,90.30
2018-11-28T13:01:47.268Z,90.10
2018-11-28T13:04:14.682Z,88.70
2018-11-28T13:06:42.068Z,88.80
2018-11-28T13:09:09.480Z,90.00
2018-11-28T13:11:36.879Z,90.70
2018-11-28T13:14:04.683Z,90.60
2018-11-28T13:16:32.056Z,90.90
2018-11-28T13:18:59.469Z,90.70
2018-11-28T13:21:26.916Z,91.20
2018-11-28T13:23:54.265Z,91.50
2018-11-28T13:26:21.663Z,91.40
2018-11-28T13:28:49.077Z,91.80
2018-11-28T13:31:19.900Z,91.70
2018-11-28T13:33:47.291Z,91.90
2018-11-28T13:36:14.691Z,92.30
2018-11-28T13:38:42.130Z,92.10
2018-11-28T13:41:09.509Z,92.20
2018-11-28T13:43:36.909Z,92.40
2018-11-28T13:46:07.239Z,92.30
2018-11-28T13:48:31.856Z,92.40
2018-11-28T13:50:59.223Z,92.20
2018-11-28T13:53:26.560Z,92.40
2018-11-28T13:56:56.925Z,92.60
2018-11-28T13:58:23.624Z,92.70
2018-11-28T14:00:51.955Z,92.60
2018-11-28T14:03:19.365Z,92.50
2018-11-28T14:05:50.035Z,92.60
2018-11-28T14:08:17.467Z,92.50
2018-11-28T14:10:44.877Z,92.60
2018-11-28T14:13:12.380Z,92.60
2018-11-28T14:15:39.752Z,93.00
2018-11-28T14:18:13.735Z,92.70
2018-11-28T14:20:41.145Z,92.80
2018-11-28T14:23:08.532Z,92.90
2018-11-28T14:25:36.190Z,93.10
2018-11-28T14:28:03.650Z,92.90
2018-11-28T14:30:31.002Z,92.70
2018-11-28T14:32:58.424Z,92.50
2018-11-28T14:35:25.806Z,92.60
2018-11-28T14:37:53.164Z,92.60
2018-11-28T14:40:21.627Z,92.70
2018-11-28T14:42:50.274Z,93.10
2018-11-28T14:45:18.334Z,92.90
2018-11-28T14:47:46.179Z,93.00
2018-11-28T14:50:20.550Z,93.30
2018-11-28T14:52:48.015Z,93.20
2018-11-28T14:55:20.329Z,93.20
2018-11-28T14:57:47.728Z,93.10
2018-11-28T15:00:16.210Z,93.20
2018-11-28T15:02:43.996Z,93.30
2018-11-28T15:06:24.174Z,93.30
2018-11-28T15:08:52.004Z,93.30
2018-11-28T15:11:19.406Z,93.50
2018-11-28T15:13:46.793Z,93.60
2018-11-28T15:16:14.172Z,93.80
2018-11-28T15:18:41.595Z,94.30
2018-11-28T15:21:09.961Z,94.40
2018-11-28T15:23:37.923Z,94.60
2018-11-28T15:26:05.456Z,94.70
2018-11-28T15:28:32.877Z,94.60
2018-11-28T15:31:00.330Z,94.80
2018-11-28T15:33:27.722Z,94.90
2018-11-28T15:35:55.054Z,95.00
2018-11-28T15:38:22.414Z,95.10
2018-11-28T15:40:49.829Z,95.20
2018-11-28T15:43:17.184Z,95.20
2018-11-28T15:45:44.594Z,95.00
2018-11-28T15:48:11.977Z,95.70
2018-11-28T15:50:39.538Z,95.70
2018-11-28T15:53:06.966Z,95.90
2018-11-28T15:55:34.453Z,96.00
2018-11-28T15:58:01.862Z,96.10
2018-11-28T16:00:29.269Z,96.20
2018-11-28T16:02:56.688Z,96.40
2018-11-28T16:05:24.092Z,96.40
2018-11-28T16:07:51.668Z,96.60
2018-11-28T16:10:24.781Z,96.80
2018-11-28T16:12:52.274Z,97.10
2018-11-28T16:15:24.846Z,97.20
2018-11-28T16:17:52.232Z,97.40
2018-11-28T16:20:19.721Z,97.80
2018-11-28T16:22:47.194Z,97.90
2018-11-28T16:25:14.608Z,98.20
2018-11-28T16:27:42.058Z,98.30
2018-11-28T16:30:11.796Z,98.30
2018-11-28T16:32:39.508Z,98.50
2018-11-28T16:35:08.743Z,98.50
2018-11-28T16:37:36.091Z,98.60
2018-11-28T16:40:05.317Z,98.90
2018-11-28T16:42:32.713Z,98.80
2018-11-28T16:45:00.115Z,99.00
2018-11-28T16:47:27.456Z,98.90
2018-11-28T16:49:54.879Z,98.80
2018-11-28T16:52:22.215Z,99.00
2018-11-28T16:54:49.620Z,98.90
2018-11-28T16:57:17.046Z,98.80
2018-11-28T16:59:44.445Z,98.80
2018-11-28T17:02:11.800Z,98.80
2018-11-28T17:04:39.164Z,98.90
2018-11-28T17:07:06.556Z,98.80
2018-11-28T17:09:33.947Z,98.70
2018-11-28T17:12:01.478Z,98.70
2018-11-28T17:14:28.906Z,98.90
2018-11-28T17:16:56.379Z,98.70
2018-11-28T17:19:23.824Z,98.70
2018-11-28T17:21:51.200Z,98.60
2018-11-28T17:24:18.608Z,98.50
2018-11-28T17:26:46.042Z,98.70
2018-11-28T17:29:13.421Z,98.50
2018-11-28T17:31:40.868Z,98.50
2018-11-28T17:34:08.276Z,98.60
2018-11-28T17:36:35.677Z,98.60
2018-11-28T17:39:06.567Z,98.50
2018-11-28T17:41:34.059Z,98.80
2018-11-28T17:44:01.596Z,98.50
2018-11-28T17:46:28.957Z,98.60
2018-11-28T17:48:56.404Z,98.70
2018-11-28T17:51:23.785Z,98.50
2018-11-28T17:53:51.223Z,98.30
2018-11-28T17:56:18.591Z,98.30
2018-11-28T17:58:46.024Z,98.40
2018-11-28T18:01:13.455Z,98.30
2018-11-28T18:03:40.914Z,98.10
2018-11-28T18:06:08.251Z,98.30
2018-11-28T18:08:35.605Z,98.30
2018-11-28T18:11:09.220Z,98.30
2018-11-28T18:13:39.512Z,98.40
2018-11-28T18:16:04.552Z,98.20
2018-11-28T18:18:32.037Z,98.30
2018-11-28T18:20:59.434Z,98.40
2018-11-28T18:23:26.787Z,98.50
2018-11-28T18:25:54.268Z,98.50
2018-11-28T18:28:21.643Z,98.90
2018-11-28T18:30:49.079Z,99.00
2018-11-28T18:33:16.565Z,99.20
2018-11-28T18:35:43.964Z,99.20
2018-11-28T18:38:11.384Z,99.30
2018-11-28T18:40:38.860Z,99.40
2018-11-28T18:43:07.025Z,99.60
2018-11-28T18:45:36.481Z,99.80
2018-11-28T18:48:03.634Z,99.90
2018-11-28T18:50:31.090Z,99.90
2018-11-28T18:52:58.484Z,99.90
2018-11-28T18:55:25.912Z,99.90
2018-11-28T18:57:55.506Z,99.90
2018-11-28T19:00:23.784Z,99.90
2018-11-28T19:02:51.623Z,99.90
2018-11-28T19:05:19.074Z,99.90
2018-11-28T19:07:46.736Z,99.90
2018-11-28T19:10:17.115Z,99.90
2018-11-28T19:12:44.484Z,99.90
2018-11-28T19:15:14.096Z,99.90
2018-11-28T19:17:41.573Z,99.90
2018-11-28T19:20:13.040Z,99.90
2018-11-28T19:22:40.464Z,99.90
2018-11-28T19:25:10.173Z,99.90
2018-11-28T19:27:37.575Z,99.90
2018-11-28T19:30:10.912Z,99.90
2018-11-28T19:32:38.349Z,99.90
2018-11-28T19:35:06.938Z,99.90
2018-11-28T19:37:35.745Z,99.90
2018-11-28T19:40:04.846Z,99.90
2018-11-28T19:42:32.251Z,99.90
2018-11-28T19:44:59.684Z,99.90
2018-11-28T19:47:27.079Z,99.90
2018-11-28T19:49:54.586Z,99.90
2018-11-28T19:52:21.922Z,99.90
2018-11-28T19:54:49.362Z,99.90
2018-11-28T19:57:16.786Z,99.90
2018-11-28T19:59:44.195Z,99.90
2018-11-28T20:02:11.609Z,99.90
2018-11-28T20:04:39.061Z,99.90
2018-11-28T20:07:06.591Z,99.90
2018-11-28T20:09:33.964Z,99.90
2018-11-28T20:12:01.437Z,99.90
2018-11-28T20:14:28.860Z,99.90
2018-11-28T20:16:56.317Z,99.90
2018-11-28T20:19:23.698Z,99.90
2018-11-28T20:21:51.152Z,99.90
2018-11-28T20:24:18.500Z,99.90
2018-11-28T20:26:45.942Z,99.90
2018-11-28T20:29:13.373Z,99.90
2018-11-28T20:31:40.750Z,99.90
2018-11-28T20:34:08.126Z,99.90
2018-11-28T20:36:35.544Z,99.90
2018-11-28T20:39:03.568Z,99.90
2018-11-28T20:41:30.992Z,99.90
2018-11-28T20:43:58.418Z,99.90
2018-11-28T20:46:25.847Z,99.90
2018-11-28T20:48:53.300Z,99.90
2018-11-28T20:51:20.692Z,99.90
2018-11-28T20:53:48.014Z,99.90
2018-11-28T20:56:15.470Z,99.90
2018-11-28T20:58:42.933Z,99.90
2018-11-28T21:01:10.344Z,99.90
2018-11-28T21:03:37.766Z,99.90
2018-11-28T21:06:05.429Z,99.90
2018-11-28T21:08:32.763Z,99.90
2018-11-28T21:11:00.155Z,99.90
2018-11-28T21:13:27.554Z,99.90
2018-11-28T21:15:54.946Z,99.90
2018-11-28T21:18:22.312Z,99.90
2018-11-28T21:20:49.794Z,99.90
2018-11-28T21:23:18.314Z,99.90
2018-11-28T21:25:48.129Z,99.90
2018-11-28T21:28:15.538Z,99.90
2018-11-28T21:30:43.057Z,99.90
2018-11-28T21:33:11.804Z,99.90
2018-11-28T21:35:41.060Z,99.90
2018-11-28T21:38:08.590Z,99.90
2018-11-28T21:40:36.108Z,99.90
2018-11-28T21:43:03.491Z,99.90
2018-11-28T21:45:31.451Z,99.90
2018-11-28T21:47:58.807Z,99.90
2018-11-28T21:50:26.145Z,99.90
2018-11-28T21:52:53.516Z,99.90
2018-11-28T21:55:22.723Z,99.90
2018-11-28T21:57:50.247Z,99.90
2018-11-28T22:00:21.645Z,99.90
2018-11-28T22:02:49.102Z,99.90
2018-11-28T22:05:16.748Z,99.90
2018-11-28T22:07:44.255Z,99.90
2018-11-28T22:10:14.420Z,99.90
2018-11-28T22:12:41.986Z,99.90
2018-11-28T22:15:10.608Z,99.90
2018-11-28T22:17:38.885Z,99.90
2018-11-28T22:20:08.399Z,99.90
2018-11-28T22:22:35.812Z,99.90
2018-11-28T22:25:03.540Z,99.90
2018-11-28T22:27:30.944Z,99.90
2018-11-28T22:29:58.365Z,99.90
2018-11-28T22:32:26.657Z,99.90
2018-11-28T22:34:55.006Z,99.90
2018-11-28T22:37:22.353Z,99.90
2018-11-28T22:39:49.671Z,99.90
2018-11-28T22:42:17.074Z,99.90
2018-11-28T22:44:44.397Z,99.90
2018-11-28T22:47:11.791Z,99.90
2018-11-28T22:49:39.197Z,99.70
2018-11-28T22:52:06.622Z,99.60
2018-11-28T22:54:33.999Z,99.90
2018-11-28T22:57:01.355Z,99.70
2018-11-28T22:59:28.823Z,99.60
2018-11-28T23:04:04.836Z,99.60
2018-11-28T23:06:32.238Z,99.50
2018-11-28T23:08:59.618Z,99.50
2018-11-28T23:11:26.980Z,99.60
2018-11-28T23:13:54.435Z,99.80
2018-11-28T23:16:21.800Z,99.90
2018-11-28T23:18:49.170Z,99.80
2018-11-28T23:21:16.558Z,99.70
2018-11-28T23:23:43.939Z,99.70
2018-11-28T23:26:11.449Z,99.70
2018-11-28T23:28:38.810Z,99.50
2018-11-28T23:31:06.226Z,99.40
2018-11-28T23:33:33.598Z,99.50
2018-11-28T23:36:00.982Z,99.60
2018-11-28T23:38:28.338Z,99.70
2018-11-28T23:40:55.671Z,99.90
2018-11-28T23:43:23.037Z,99.90
2018-11-28T23:45:50.373Z,99.70
2018-11-28T23:48:17.771Z,99.60
2018-11-28T23:50:45.118Z,99.50
2018-11-28T23:53:12.934Z,99.60
2018-11-28T23:55:40.296Z,99.70
2018-11-28T23:58:08.224Z,99.80
